Time;durP1;ratioP1;P1;durP2;ratioP2;P2;SDS_P1;SDS_P2;PMS_P1;PMS_P2;Temp;Humidity;BMP_temperature;BMP_pressure;BME280_temperature;BME280_humidity;BME280_pressure;Samples;Min_cycle;Max_cycle;Signal;HPM_P1;HPM_P2
2022/07/04 00:01:07;;;;;;;8.00;2.43;;;23.70;73.70;;;;;;5054025;28;20441;-43
2022/07/04 00:03:33;;;;;;;3.10;2.50;;;23.60;74.20;;;;;;5054010;28;20433;-42
2022/07/04 00:06:01;;;;;;;4.70;2.73;;;23.50;74.40;;;;;;5054061;28;20961;-46
2022/07/04 00:08:28;;;;;;;4.17;3.00;;;23.60;74.80;;;;;;5052416;28;20452;-46
2022/07/04 00:10:54;;;;;;;5.40;2.37;;;23.40;74.70;;;;;;5053949;28;20436;-44
2022/07/04 00:13:21;;;;;;;2.60;2.40;;;23.40;74.90;;;;;;5053635;28;20928;-43
2022/07/04 00:15:47;;;;;;;2.53;2.00;;;23.30;75.50;;;;;;5052504;28;20456;-43
2022/07/04 00:18:14;;;;;;;2.70;2.10;;;23.20;75.90;;;;;;5053747;28;20452;-44
2022/07/04 00:20:41;;;;;;;4.80;2.30;;;23.30;76.30;;;;;;5053595;28;20439;-44
2022/07/04 00:23:09;;;;;;;3.50;2.30;;;23.10;76.40;;;;;;5053723;28;20785;-43
2022/07/04 00:25:35;;;;;;;4.20;2.37;;;23.10;77.30;;;;;;5053565;28;20485;-43
2022/07/04 00:28:02;;;;;;;2.60;2.00;;;22.90;77.90;;;;;;5053746;28;20437;-42
2022/07/04 00:30:28;;;;;;;3.17;1.97;;;22.90;78.10;;;;;;5051956;28;20457;-45
2022/07/04 00:32:55;;;;;;;3.10;2.33;;;22.80;78.40;;;;;;5053569;28;20431;-43
2022/07/04 00:35:22;;;;;;;3.90;2.10;;;22.80;78.90;;;;;;5054070;28;20969;-44
2022/07/04 00:37:48;;;;;;;4.80;2.80;;;22.70;79.10;;;;;;5052379;28;20523;-43
2022/07/04 00:40:16;;;;;;;3.17;2.27;;;22.70;79.80;;;;;;5053838;28;20500;-44
2022/07/04 00:42:43;;;;;;;2.60;2.40;;;22.60;81.00;;;;;;5053938;28;20431;-46
2022/07/04 00:45:10;;;;;;;3.03;2.70;;;22.50;80.50;;;;;;5053725;28;20975;-43
2022/07/04 00:47:37;;;;;;;3.00;2.33;;;22.50;80.80;;;;;;5053749;28;20798;-43
2022/07/04 00:50:04;;;;;;;4.20;2.00;;;22.50;81.30;;;;;;5054002;28;20442;-43
2022/07/04 00:52:31;;;;;;;4.63;2.40;;;22.40;81.60;;;;;;5053837;28;20450;-46
2022/07/04 00:55:00;;;;;;;4.53;2.07;;;22.50;82.00;;;;;;5053680;28;20461;-44
2022/07/04 00:57:28;;;;;;;3.97;2.40;;;22.30;82.10;;;;;;5053277;28;20437;-42
2022/07/04 00:59:55;;;;;;;4.03;2.10;;;22.30;82.40;;;;;;5052927;28;20443;-44
2022/07/04 01:02:22;;;;;;;2.87;2.13;;;22.30;82.70;;;;;;5053052;28;20430;-42
2022/07/04 01:04:48;;;;;;;3.03;2.27;;;22.10;82.40;;;;;;5052682;28;20465;-44
2022/07/04 01:07:15;;;;;;;4.80;2.20;;;22.30;82.90;;;;;;5053311;28;20449;-42
2022/07/04 01:09:42;;;;;;;2.83;2.53;;;22.20;83.50;;;;;;5052739;28;20438;-43
2022/07/04 01:12:09;;;;;;;3.40;2.37;;;22.00;83.40;;;;;;5052833;28;20438;-42
2022/07/04 01:14:39;;;;;;;4.43;2.33;;;22.00;83.90;;;;;;5052774;28;20978;-46
2022/07/04 01:17:06;;;;;;;3.37;2.07;;;22.00;84.40;;;;;;5052828;28;20887;-46
2022/07/04 01:19:33;;;;;;;2.67;2.23;;;22.00;84.80;;;;;;5052494;28;20480;-43
2022/07/04 01:22:06;;;;;;;3.30;2.37;;;21.90;84.50;;;;;;5052911;28;20806;-44
2022/07/04 01:24:32;;;;;;;2.67;2.07;;;21.90;84.90;;;;;;5052155;28;20460;-43
2022/07/04 01:26:59;;;;;;;3.30;1.97;;;21.80;85.30;;;;;;5052475;28;20984;-43
2022/07/04 01:29:25;;;;;;;4.10;2.40;;;22.00;86.10;;;;;;5052667;28;20790;-44
2022/07/04 01:31:53;;;;;;;4.60;2.40;;;21.80;86.40;;;;;;5052382;28;20442;-45
2022/07/04 01:34:20;;;;;;;3.80;2.20;;;21.70;87.30;;;;;;5052333;28;20473;-43
2022/07/04 01:36:46;;;;;;;3.50;2.20;;;21.70;87.60;;;;;;5052287;28;20441;-44
2022/07/04 01:39:14;;;;;;;4.20;2.13;;;21.50;88.30;;;;;;5052145;28;20429;-43
2022/07/04 01:41:41;;;;;;;2.77;2.57;;;21.50;89.00;;;;;;5052261;28;20596;-44
2022/07/04 01:44:07;;;;;;;3.00;2.07;;;21.20;88.60;;;;;;5052293;28;20920;-44
2022/07/04 01:46:34;;;;;;;3.10;2.50;;;21.40;89.30;;;;;;5052042;28;20482;-42
2022/07/04 01:49:00;;;;;;;3.83;2.83;;;21.20;89.60;;;;;;5052038;28;20438;-45
2022/07/04 01:51:27;;;;;;;3.60;2.63;;;21.30;90.20;;;;;;5052347;28;20444;-43
2022/07/04 01:53:53;;;;;;;2.60;2.40;;;21.30;90.70;;;;;;5052073;28;20463;-43
2022/07/04 01:56:21;;;;;;;3.80;3.10;;;21.10;91.00;;;;;;5052156;28;20464;-42
2022/07/04 01:58:48;;;;;;;6.03;2.70;;;20.80;91.10;;;;;;5051830;28;20948;-43
2022/07/04 02:01:29;;;;;;;3.07;2.77;;;21.00;91.60;;;;;;5051816;28;20441;-45
2022/07/04 02:03:56;;;;;;;5.67;3.10;;;21.10;91.90;;;;;;5050877;28;20900;-43
2022/07/04 02:06:23;;;;;;;3.70;2.93;;;20.90;92.40;;;;;;5052150;28;20476;-41
2022/07/04 02:14:15;;;;;;;3.60;3.30;;;20.80;93.20;;;;;;5049680;28;20474;-42
2022/07/04 02:16:42;;;;;;;5.43;3.40;;;21.00;93.60;;;;;;5050403;28;20444;-42
2022/07/04 02:19:08;;;;;;;3.80;3.20;;;20.80;93.80;;;;;;5051660;28;20466;-43
2022/07/04 02:21:35;;;;;;;4.73;4.30;;;21.10;94.70;;;;;;5051969;28;20440;-45
2022/07/04 02:24:02;;;;;;;5.23;4.10;;;20.60;95.20;;;;;;5051566;28;20457;-42
2022/07/04 02:26:28;;;;;;;4.80;4.30;;;20.60;95.90;;;;;;5051640;28;20470;-42
2022/07/04 02:28:56;;;;;;;5.47;4.97;;;20.60;96.20;;;;;;5051407;28;20443;-41
2022/07/04 02:31:23;;;;;;;6.40;5.37;;;20.80;97.00;;;;;;5051697;28;20439;-41
2022/07/04 02:33:50;;;;;;;5.63;5.10;;;20.50;97.90;;;;;;5051747;28;20460;-41
2022/07/04 02:36:16;;;;;;;5.87;5.37;;;20.40;98.30;;;;;;5052793;28;20501;-42
2022/07/04 02:38:43;;;;;;;6.50;5.90;;;20.30;98.90;;;;;;5055492;28;20947;-43
2022/07/04 02:41:10;;;;;;;6.37;5.77;;;20.30;99.40;;;;;;5055715;28;20436;-44
2022/07/04 02:43:36;;;;;;;6.57;5.97;;;20.30;99.90;;;;;;5055483;28;20436;-43
2022/07/04 02:46:04;;;;;;;10.50;6.60;;;20.40;99.90;;;;;;5055505;28;20956;-42
2022/07/04 02:48:31;;;;;;;7.20;6.50;;;20.10;99.90;;;;;;5055244;28;20443;-43
2022/07/04 02:50:57;;;;;;;9.50;7.00;;;20.40;99.90;;;;;;5055998;28;20944;-43
2022/07/04 02:53:24;;;;;;;7.13;6.30;;;20.10;99.90;;;;;;5055434;28;20463;-46
2022/07/04 02:55:51;;;;;;;8.67;7.80;;;20.10;99.90;;;;;;5055275;28;20446;-43
2022/07/04 02:58:17;;;;;;;9.37;6.90;;;20.10;99.90;;;;;;5055436;28;20794;-43
2022/07/04 03:00:44;;;;;;;9.53;7.03;;;19.80;99.90;;;;;;5055182;28;20442;-42
2022/07/04 03:03:12;;;;;;;7.20;6.60;;;19.90;99.90;;;;;;5055254;28;20438;-44
2022/07/04 03:05:38;;;;;;;7.60;6.90;;;19.90;99.90;;;;;;5055003;28;20843;-45
2022/07/04 03:08:05;;;;;;;7.47;6.80;;;20.00;99.90;;;;;;5055211;28;20438;-42
2022/07/04 03:10:32;;;;;;;8.13;6.60;;;20.00;99.90;;;;;;5055053;28;20439;-42
2022/07/04 03:12:59;;;;;;;7.30;6.47;;;20.00;99.90;;;;;;5055002;28;20438;-43
2022/07/04 03:15:25;;;;;;;8.20;6.80;;;19.80;99.90;;;;;;5055325;28;20556;-43
2022/07/04 03:17:52;;;;;;;7.53;7.03;;;20.00;99.90;;;;;;5055010;28;20479;-43
2022/07/04 03:20:20;;;;;;;7.70;7.00;;;20.00;99.90;;;;;;5054639;28;20951;-42
2022/07/04 03:22:46;;;;;;;7.90;7.30;;;20.00;99.90;;;;;;5055131;28;20437;-41
2022/07/04 03:25:13;;;;;;;8.63;7.53;;;20.20;99.90;;;;;;5054717;28;20481;-42
2022/07/04 03:27:39;;;;;;;8.43;7.63;;;20.00;99.90;;;;;;5054808;28;20449;-42
2022/07/04 03:30:07;;;;;;;9.60;8.60;;;19.90;99.90;;;;;;5054446;28;20434;-43
2022/07/04 03:32:34;;;;;;;8.60;7.90;;;20.00;99.90;;;;;;5054779;28;20430;-43
2022/07/04 03:35:00;;;;;;;8.60;7.90;;;19.90;99.90;;;;;;5054371;28;20478;-42
2022/07/04 03:37:28;;;;;;;11.70;7.60;;;19.80;99.90;;;;;;5054701;28;20635;-42
2022/07/04 03:39:55;;;;;;;8.00;7.20;;;19.80;99.90;;;;;;5054556;28;20441;-42
2022/07/04 03:42:21;;;;;;;7.27;6.67;;;19.90;99.90;;;;;;5054464;28;20950;-43
2022/07/04 03:44:48;;;;;;;8.50;7.63;;;20.20;99.90;;;;;;5054388;28;20457;-43
2022/07/04 03:47:15;;;;;;;8.37;7.47;;;20.10;99.90;;;;;;5054222;28;20475;-42
2022/07/04 03:49:41;;;;;;;11.07;7.73;;;19.90;99.90;;;;;;5053665;28;20441;-46
2022/07/04 03:52:08;;;;;;;8.27;7.57;;;20.00;99.90;;;;;;5054753;28;20438;-43
2022/07/04 03:54:36;;;;;;;8.50;6.83;;;20.00;99.90;;;;;;5054333;28;20477;-42
2022/07/04 03:57:03;;;;;;;8.30;7.47;;;20.10;99.90;;;;;;5054266;28;20518;-43
2022/07/04 03:59:29;;;;;;;8.33;7.10;;;20.10;99.90;;;;;;5053934;28;20454;-42
2022/07/04 04:01:56;;;;;;;8.70;7.90;;;20.10;99.90;;;;;;5053894;28;20439;-44
2022/07/04 04:07:07;;;;;;;9.23;7.03;;;20.50;99.90;;;;;;5054331;28;20472;-41
2022/07/04 04:09:33;;;;;;;8.37;7.67;;;20.10;99.90;;;;;;5054008;28;20434;-42
2022/07/04 04:12:01;;;;;;;8.50;7.70;;;19.60;99.90;;;;;;5053701;28;20927;-43
2022/07/04 04:14:28;;;;;;;9.13;8.33;;;20.10;99.90;;;;;;5053778;28;20542;-43
2022/07/04 04:16:55;;;;;;;8.73;7.87;;;20.20;99.90;;;;;;5054150;28;20796;-43
2022/07/04 04:19:21;;;;;;;8.70;7.80;;;20.10;99.90;;;;;;5053860;28;20932;-43
2022/07/04 04:21:48;;;;;;;8.40;7.60;;;20.10;99.90;;;;;;5054122;28;20509;-45
2022/07/04 04:24:15;;;;;;;8.63;7.83;;;20.40;99.90;;;;;;5053788;28;20457;-43
2022/07/04 04:26:41;;;;;;;9.47;7.63;;;20.10;99.90;;;;;;5053650;28;20480;-42
2022/07/04 04:29:09;;;;;;;7.93;7.07;;;20.20;99.90;;;;;;5053434;28;20436;-43
2022/07/04 04:31:37;;;;;;;9.40;8.10;;;20.20;99.90;;;;;;5053847;28;20436;-42
2022/07/04 04:34:03;;;;;;;9.60;8.30;;;20.00;99.90;;;;;;5053726;28;20840;-41
2022/07/04 04:36:30;;;;;;;8.83;7.50;;;20.60;99.90;;;;;;5053799;28;20435;-43
2022/07/04 04:38:57;;;;;;;9.67;8.13;;;20.90;99.90;;;;;;5053247;28;20475;-42
2022/07/04 04:41:23;;;;;;;9.33;8.30;;;20.90;99.90;;;;;;5053746;28;20924;-43
2022/07/04 04:43:50;;;;;;;8.60;7.10;;;21.00;99.90;;;;;;5053226;28;20488;-43
2022/07/04 04:46:18;;;;;;;8.77;7.97;;;21.00;99.90;;;;;;5053212;28;20981;-45
2022/07/04 04:48:44;;;;;;;10.60;7.73;;;21.10;99.90;;;;;;5053460;28;20428;-42
2022/07/04 04:51:11;;;;;;;13.60;7.90;;;21.30;99.90;;;;;;5053273;28;20440;-44
2022/07/04 04:53:38;;;;;;;8.70;7.17;;;21.20;99.90;;;;;;5053391;28;20799;-43
2022/07/04 04:56:05;;;;;;;7.90;6.70;;;21.20;99.90;;;;;;5053151;28;20431;-42
2022/07/04 04:58:31;;;;;;;7.50;6.70;;;21.40;99.90;;;;;;5053154;28;20431;-43
2022/07/04 05:00:58;;;;;;;8.80;7.60;;;21.40;99.90;;;;;;5052241;28;20433;-42
2022/07/04 05:03:26;;;;;;;8.77;7.07;;;21.40;99.90;;;;;;5052990;28;20433;-42
2022/07/04 05:05:53;;;;;;;7.87;6.37;;;21.60;99.90;;;;;;5052679;28;20456;-43
2022/07/04 05:08:19;;;;;;;10.87;6.60;;;21.70;99.90;;;;;;5052797;28;20434;-44
2022/07/04 05:10:46;;;;;;;7.77;6.00;;;21.90;99.90;;;;;;5052529;28;20430;-44
2022/07/04 05:13:12;;;;;;;13.33;6.47;;;21.90;99.90;;;;;;5052943;28;20434;-43
2022/07/04 05:15:39;;;;;;;10.23;7.27;;;22.10;99.90;;;;;;5052573;28;20456;-43
2022/07/04 05:18:06;;;;;;;8.27;5.60;;;21.90;99.90;;;;;;5052436;28;20437;-44
2022/07/04 05:20:34;;;;;;;7.40;6.70;;;22.30;99.90;;;;;;5052203;28;20442;-44
2022/07/04 05:23:00;;;;;;;12.87;6.00;;;22.50;99.90;;;;;;5052505;28;20442;-42
2022/07/04 05:25:27;;;;;;;19.77;6.30;;;22.60;99.90;;;;;;5052320;28;20469;-42
2022/07/04 05:27:54;;;;;;;16.83;7.40;;;22.70;99.90;;;;;;5052586;28;20485;-45
2022/07/04 05:30:20;;;;;;;11.03;5.90;;;22.80;99.80;;;;;;5051794;28;20438;-43
2022/07/04 05:32:47;;;;;;;9.73;5.73;;;22.90;99.90;;;;;;5052489;28;20440;-43
2022/07/04 05:35:14;;;;;;;10.07;6.40;;;22.80;99.20;;;;;;5052603;28;20469;-42
2022/07/04 05:37:43;;;;;;;6.50;5.90;;;22.80;99.10;;;;;;5050651;28;20447;-43
2022/07/04 05:40:11;;;;;;;6.90;4.70;;;22.60;99.10;;;;;;5051654;28;20489;-44
2022/07/04 05:42:38;;;;;;;6.47;5.80;;;22.50;99.20;;;;;;5052149;28;20528;-43
2022/07/04 05:45:06;;;;;;;6.30;5.30;;;22.30;99.10;;;;;;5051705;28;20449;-44
2022/07/04 05:47:32;;;;;;;6.73;5.13;;;22.30;99.50;;;;;;5052050;28;20481;-45
2022/07/04 05:50:00;;;;;;;6.03;4.30;;;21.90;99.00;;;;;;5052154;28;20449;-43
2022/07/04 05:52:27;;;;;;;5.23;4.27;;;22.40;99.00;;;;;;5051409;28;20532;-46
2022/07/04 05:54:54;;;;;;;5.30;4.60;;;22.50;98.80;;;;;;5052130;28;20449;-42
2022/07/04 05:57:21;;;;;;;12.53;3.97;;;22.50;98.70;;;;;;5051823;28;20804;-43
2022/07/04 05:59:48;;;;;;;6.87;4.17;;;22.20;98.20;;;;;;5051413;28;20958;-44
2022/07/04 06:02:15;;;;;;;7.63;4.60;;;22.90;98.40;;;;;;5051675;28;20446;-43
2022/07/04 06:04:43;;;;;;;3.70;3.30;;;22.50;98.10;;;;;;5051430;28;20996;-43
2022/07/04 06:07:09;;;;;;;4.67;3.80;;;22.70;98.10;;;;;;5051817;28;20471;-44
2022/07/04 06:09:36;;;;;;;6.23;3.43;;;22.40;97.90;;;;;;5051464;28;20538;-43
2022/07/04 06:12:05;;;;;;;6.73;3.63;;;22.50;97.60;;;;;;5051311;28;20935;-45
2022/07/04 06:14:32;;;;;;;4.00;3.10;;;22.60;97.40;;;;;;5051873;28;20457;-42
2022/07/04 06:16:59;;;;;;;6.83;2.50;;;22.60;97.10;;;;;;5051651;28;20533;-42
2022/07/04 06:19:26;;;;;;;3.00;2.20;;;22.90;96.90;;;;;;5051681;28;20429;-42
2022/07/04 06:21:53;;;;;;;3.17;2.23;;;22.80;95.70;;;;;;5051496;28;20450;-44
2022/07/04 06:24:20;;;;;;;5.50;2.83;;;22.50;95.00;;;;;;5051539;28;20462;-42
2022/07/04 06:26:47;;;;;;;2.10;1.47;;;22.80;95.70;;;;;;5051447;28;20481;-44
2022/07/04 06:29:15;;;;;;;3.13;1.50;;;22.80;94.10;;;;;;5051079;28;20441;-45
2022/07/04 06:31:41;;;;;;;5.10;1.50;;;22.80;93.00;;;;;;5051765;28;20442;-43
2022/07/04 06:37:01;;;;;;;2.30;1.23;;;22.70;91.50;;;;;;4994375;28;20454;-48
2022/07/04 06:39:27;;;;;;;5.40;1.47;;;23.10;91.00;;;;;;5030012;28;20426;-49
2022/07/04 06:41:54;;;;;;;3.60;1.20;;;23.20;90.20;;;;;;5028779;28;20464;-49
2022/07/04 06:44:22;;;;;;;4.40;1.70;;;23.10;88.60;;;;;;5030256;28;20510;-50
2022/07/04 06:46:50;;;;;;;3.53;1.10;;;23.20;88.50;;;;;;5030826;28;20979;-50
2022/07/04 06:49:17;;;;;;;4.50;1.20;;;23.10;87.50;;;;;;5030419;28;20457;-49
2022/07/04 06:51:44;;;;;;;3.27;1.00;;;23.30;86.80;;;;;;5030426;28;20819;-49
2022/07/04 06:54:10;;;;;;;4.97;1.47;;;23.30;86.10;;;;;;5030479;28;20522;-49
2022/07/04 06:56:37;;;;;;;2.93;1.20;;;23.30;85.70;;;;;;5030622;28;20458;-49
2022/07/04 06:59:04;;;;;;;2.80;1.70;;;23.40;85.80;;;;;;5029956;28;20440;-49
2022/07/04 07:01:32;;;;;;;10.83;4.07;;;23.30;85.40;;;;;;5030700;28;20481;-49
2022/07/04 07:03:59;;;;;;;2.40;1.17;;;23.40;84.20;;;;;;5030777;28;20464;-49
2022/07/04 07:06:26;;;;;;;3.33;1.13;;;23.30;84.10;;;;;;5030935;28;20819;-49
2022/07/04 07:08:52;;;;;;;5.13;1.30;;;23.30;83.80;;;;;;5030396;28;20447;-49
2022/07/04 07:11:19;;;;;;;3.70;1.20;;;23.20;83.30;;;;;;5030932;28;20442;-49
2022/07/04 07:13:48;;;;;;;3.57;1.40;;;23.40;83.20;;;;;;5030917;28;21174;-49
2022/07/04 07:16:15;;;;;;;5.17;1.13;;;23.50;82.60;;;;;;5030727;28;20464;-49
2022/07/04 07:18:44;;;;;;;6.63;1.30;;;23.60;82.70;;;;;;5030011;28;20443;-49
2022/07/04 07:21:11;;;;;;;4.50;1.07;;;23.50;82.60;;;;;;5030539;28;20437;-49
2022/07/04 07:23:39;;;;;;;4.33;1.23;;;23.50;82.70;;;;;;5032021;28;20432;-49
2022/07/04 07:26:06;;;;;;;1.77;1.10;;;23.50;82.70;;;;;;5033834;28;20507;-49
2022/07/04 07:28:33;;;;;;;1.83;0.90;;;23.40;83.00;;;;;;5033223;28;20581;-50
2022/07/04 07:30:59;;;;;;;2.63;1.73;;;23.40;83.00;;;;;;5034241;28;20435;-49
2022/07/04 07:33:26;;;;;;;1.40;0.80;;;23.50;82.20;;;;;;5034016;28;20937;-49
2022/07/04 07:35:54;;;;;;;3.20;1.30;;;23.60;80.90;;;;;;5034075;28;20839;-49
2022/07/04 07:38:21;;;;;;;3.30;1.03;;;23.80;81.10;;;;;;5033877;28;20436;-50
2022/07/04 07:40:47;;;;;;;2.73;1.13;;;24.10;81.10;;;;;;5033611;28;20513;-49
2022/07/04 07:43:14;;;;;;;2.50;1.00;;;24.20;80.30;;;;;;5033520;28;20437;-50
2022/07/04 07:45:41;;;;;;;3.63;1.50;;;24.30;78.60;;;;;;5033827;28;20532;-51
2022/07/04 07:48:07;;;;;;;2.43;0.93;;;24.20;79.00;;;;;;5033753;28;20508;-49
2022/07/04 07:50:34;;;;;;;4.13;1.20;;;24.10;79.00;;;;;;5033239;28;20433;-51
2022/07/04 07:53:02;;;;;;;3.90;1.00;;;24.00;79.20;;;;;;5033263;28;20439;-49
2022/07/04 07:55:29;;;;;;;6.83;1.20;;;24.00;79.50;;;;;;5033176;28;20588;-49
2022/07/04 07:57:57;;;;;;;4.97;1.30;;;24.10;79.60;;;;;;5033355;28;20795;-49
2022/07/04 08:00:24;;;;;;;3.70;1.30;;;24.10;79.50;;;;;;5032950;28;20437;-50
2022/07/04 08:05:36;;;;;;;6.03;1.50;;;24.40;79.10;;;;;;5033448;28;20954;-49
2022/07/04 08:08:07;;;;;;;4.43;1.23;;;24.60;78.80;;;;;;5032973;28;20528;-49
2022/07/04 08:10:52;;;;;;;4.50;1.57;;;24.70;78.50;;;;;;5031435;28;20510;-48
2022/07/04 08:13:19;;;;;;;4.53;2.00;;;24.90;77.50;;;;;;5033423;28;20501;-49
2022/07/04 08:15:46;;;;;;;2.33;1.10;;;24.80;78.20;;;;;;5032209;28;20501;-49
2022/07/04 08:18:13;;;;;;;2.60;1.20;;;24.80;77.80;;;;;;5033015;28;20960;-49
2022/07/04 08:20:40;;;;;;;2.70;1.10;;;24.70;77.70;;;;;;5032757;28;20439;-48
2022/07/04 08:23:08;;;;;;;3.83;1.10;;;24.70;77.80;;;;;;5031835;28;20462;-49
2022/07/04 08:25:35;;;;;;;3.23;1.10;;;24.70;77.00;;;;;;5033124;28;20451;-49
2022/07/04 08:28:02;;;;;;;3.53;1.50;;;24.60;76.80;;;;;;5033243;28;20471;-49
2022/07/04 08:30:42;;;;;;;2.93;1.07;;;24.60;77.10;;;;;;5036572;28;20461;-49
2022/07/04 08:33:09;;;;;;;4.23;1.20;;;24.50;76.90;;;;;;5032769;28;20443;-52
2022/07/04 08:35:36;;;;;;;3.00;1.20;;;24.40;76.70;;;;;;5032933;28;20469;-51
2022/07/04 08:38:03;;;;;;;2.70;1.00;;;24.40;76.80;;;;;;5033114;28;20449;-49
2022/07/04 08:40:32;;;;;;;1.83;0.90;;;24.30;77.40;;;;;;5031399;28;20450;-51
2022/07/04 08:42:59;;;;;;;4.23;1.00;;;24.10;76.20;;;;;;5033431;28;20504;-50
2022/07/04 08:45:28;;;;;;;2.60;1.07;;;23.90;76.20;;;;;;5031831;28;20527;-49
2022/07/04 08:48:02;;;;;;;2.67;1.20;;;24.10;76.70;;;;;;5032999;28;20482;-49
2022/07/04 08:50:32;;;;;;;3.43;1.40;;;24.20;76.60;;;;;;5031799;28;20521;-50
2022/07/04 08:53:04;;;;;;;2.00;1.10;;;24.30;76.30;;;;;;5030962;28;20446;-49
2022/07/04 08:58:29;;;;;;;3.27;1.23;;;24.50;76.80;;;;;;5031105;28;20799;-48
2022/07/04 09:00:58;;;;;;;3.80;1.23;;;24.50;76.00;;;;;;5032791;28;20462;-49
2022/07/04 09:03:26;;;;;;;2.33;1.37;;;24.50;76.20;;;;;;5032582;28;20497;-48
2022/07/04 09:05:53;;;;;;;5.70;1.60;;;24.50;76.20;;;;;;5031213;28;20481;-50
2022/07/04 09:08:21;;;;;;;2.00;1.10;;;24.40;75.90;;;;;;5031178;28;20493;-48
2022/07/04 09:10:50;;;;;;;5.33;1.10;;;24.40;74.80;;;;;;5031179;28;20471;-50
2022/07/04 09:13:18;;;;;;;4.13;1.40;;;24.40;74.40;;;;;;5030810;28;20452;-49
2022/07/04 09:15:46;;;;;;;3.53;1.70;;;24.40;74.50;;;;;;5032724;28;20820;-50
2022/07/04 09:18:25;;;;;;;3.07;1.40;;;24.50;74.50;;;;;;5030915;28;20742;-49
2022/07/04 09:20:52;;;;;;;3.73;1.40;;;24.50;74.10;;;;;;5031950;28;20446;-50
2022/07/04 09:23:23;;;;;;;2.10;1.50;;;24.60;74.20;;;;;;5032132;28;20439;-49
2022/07/04 09:26:08;;;;;;;5.97;1.67;;;24.70;74.00;;;;;;5031778;28;20493;-49
2022/07/04 09:28:35;;;;;;;4.87;1.70;;;24.80;74.80;;;;;;5030052;28;20849;-49
2022/07/04 09:31:02;;;;;;;6.77;1.77;;;24.80;74.30;;;;;;5031976;28;20477;-50
2022/07/04 09:33:49;;;;;;;2.90;1.30;;;24.90;74.30;;;;;;5029915;28;20459;-49
2022/07/04 09:36:18;;;;;;;4.80;1.33;;;25.00;73.90;;;;;;5018195;28;20487;-49
2022/07/04 09:38:46;;;;;;;4.33;1.63;;;24.90;73.20;;;;;;5031027;28;21052;-49
2022/07/04 09:41:29;;;;;;;3.97;1.00;;;24.80;71.90;;;;;;5030523;28;20508;-50
2022/07/04 09:44:04;;;;;;;3.00;1.60;;;24.90;71.90;;;;;;5030342;28;20450;-49
2022/07/04 09:46:34;;;;;;;4.10;1.27;;;24.90;71.90;;;;;;5029577;28;20447;-50
2022/07/04 09:49:01;;;;;;;3.50;1.93;;;25.10;71.70;;;;;;5026630;28;20479;-50
2022/07/04 09:51:41;;;;;;;4.33;1.63;;;25.10;70.70;;;;;;5012056;28;20432;-48
2022/07/04 09:54:25;;;;;;;2.50;1.20;;;25.30;70.20;;;;;;5011613;28;20489;-49
2022/07/04 09:56:55;;;;;;;4.00;1.40;;;25.40;65.80;;;;;;5021893;28;20519;-50
2022/07/04 09:59:23;;;;;;;2.57;1.47;;;25.50;67.80;;;;;;5031226;28;20420;-49
2022/07/04 10:01:50;;;;;;;6.00;1.33;;;25.50;67.70;;;;;;5031868;28;20539;-49
2022/07/04 10:04:17;;;;;;;4.33;1.20;;;25.50;67.70;;;;;;5031371;28;20972;-49
2022/07/04 10:06:45;;;;;;;3.10;1.40;;;25.40;67.10;;;;;;5029873;28;20797;-48
2022/07/04 10:09:14;;;;;;;2.23;1.50;;;25.40;67.20;;;;;;5030830;28;20839;-49
2022/07/04 10:11:43;;;;;;;3.10;1.63;;;25.40;66.80;;;;;;5030835;28;20537;-48
2022/07/04 10:14:14;;;;;;;3.67;0.97;;;25.30;66.00;;;;;;5031132;28;20490;-49
2022/07/04 10:16:42;;;;;;;3.10;1.30;;;25.40;66.30;;;;;;5029995;28;20454;-48
2022/07/04 10:19:12;;;;;;;4.43;1.20;;;25.40;66.20;;;;;;5029973;28;20453;-48
2022/07/04 10:21:39;;;;;;;4.23;1.33;;;25.50;66.10;;;;;;5028151;28;20541;-48
2022/07/04 10:24:08;;;;;;;2.60;1.30;;;25.20;65.50;;;;;;5029511;28;20448;-48
2022/07/04 10:26:35;;;;;;;1.83;1.10;;;25.40;65.50;;;;;;5030024;28;20494;-48
2022/07/04 10:29:02;;;;;;;5.37;1.13;;;25.50;65.30;;;;;;5029552;28;20967;-47
2022/07/04 10:31:32;;;;;;;3.20;1.47;;;25.70;64.90;;;;;;5029227;28;20443;-48
2022/07/04 10:34:00;;;;;;;6.50;1.70;;;25.90;64.60;;;;;;5030165;28;20443;-48
2022/07/04 10:36:29;;;;;;;5.13;2.50;;;26.10;64.10;;;;;;5030338;28;20443;-49
2022/07/04 10:38:58;;;;;;;3.73;1.77;;;26.30;63.30;;;;;;5030367;28;20446;-50
2022/07/04 10:41:27;;;;;;;4.30;1.60;;;26.30;63.00;;;;;;5030640;28;20432;-48
2022/07/04 10:43:56;;;;;;;4.47;1.53;;;26.40;62.50;;;;;;5030605;28;20942;-50
2022/07/04 10:49:21;;;;;;;2.13;1.00;;;26.40;61.40;;;;;;5023747;28;20486;-47
2022/07/04 10:51:50;;;;;;;7.33;1.43;;;26.20;61.00;;;;;;5029428;28;20523;-49
2022/07/04 10:54:18;;;;;;;4.40;1.30;;;26.20;61.40;;;;;;5028995;28;20996;-50
2022/07/04 10:56:54;;;;;;;4.80;1.60;;;26.10;61.60;;;;;;5010938;28;20458;-49
2022/07/04 10:59:25;;;;;;;2.10;1.10;;;26.20;61.60;;;;;;5021353;28;20501;-48
2022/07/04 11:02:28;;;;;;;1.90;1.40;;;26.20;61.70;;;;;;5032981;28;20461;-48
2022/07/04 11:05:00;;;;;;;3.13;1.40;;;26.30;61.30;;;;;;5026647;28;20480;-49
2022/07/04 11:08:05;;;;;;;6.07;2.20;;;26.40;61.20;;;;;;5048806;28;20459;-49
2022/07/04 11:10:34;;;;;;;2.70;1.10;;;26.50;60.50;;;;;;5032474;28;20574;-49
2022/07/04 11:13:20;;;;;;;2.77;1.10;;;26.60;61.20;;;;;;5034196;28;20465;-49
2022/07/04 11:16:04;;;;;;;4.30;1.97;;;26.40;61.30;;;;;;5034393;28;20475;-50
2022/07/04 11:18:31;;;;;;;2.67;1.20;;;26.40;61.60;;;;;;5033599;28;20493;-50
2022/07/04 11:20:59;;;;;;;4.50;1.70;;;26.30;62.00;;;;;;5033949;28;20529;-50
2022/07/04 11:23:25;;;;;;;3.30;1.10;;;26.30;62.10;;;;;;5034232;28;20455;-48
2022/07/04 11:25:54;;;;;;;1.80;1.10;;;26.10;61.60;;;;;;5031969;28;20522;-48
2022/07/04 11:28:22;;;;;;;6.20;1.80;;;26.00;62.20;;;;;;5033279;28;20503;-49
2022/07/04 11:30:50;;;;;;;2.70;1.50;;;25.90;62.50;;;;;;5033659;28;20470;-49
2022/07/04 11:33:22;;;;;;;3.50;1.20;;;25.80;62.40;;;;;;5034097;28;20568;-48
2022/07/04 11:36:04;;;;;;;9.73;2.27;;;25.90;62.30;;;;;;5031605;28;20486;-49
2022/07/04 11:38:44;;;;;;;3.13;1.30;;;26.00;61.50;;;;;;5032980;28;20963;-50
2022/07/04 11:46:40;;;;;;;6.37;1.47;;;26.40;60.80;;;;;;5032965;28;20432;-48
2022/07/04 11:49:10;;;;;;;2.27;1.10;;;26.30;60.10;;;;;;5033003;28;20505;-48
2022/07/04 11:51:43;;;;;;;2.07;0.93;;;26.20;60.10;;;;;;5033550;28;20436;-48
2022/07/04 11:54:10;;;;;;;2.47;1.20;;;26.30;60.20;;;;;;5033422;28;20820;-49
2022/07/04 11:56:37;;;;;;;4.80;1.43;;;26.00;60.30;;;;;;5033276;28;20524;-49
2022/07/04 11:59:12;;;;;;;2.97;0.97;;;25.90;60.60;;;;;;5033099;28;20461;-49
2022/07/04 12:01:40;;;;;;;4.20;1.43;;;25.80;60.60;;;;;;5032953;28;20435;-47
2022/07/04 12:04:17;;;;;;;2.00;1.20;;;25.80;60.90;;;;;;5031999;28;20469;-48
2022/07/04 12:06:47;;;;;;;1.90;1.70;;;25.80;60.90;;;;;;5033177;28;20439;-48
2022/07/04 12:09:17;;;;;;;3.60;1.13;;;25.70;61.00;;;;;;5032199;28;20471;-50
2022/07/04 12:11:57;;;;;;;4.43;1.80;;;25.60;60.40;;;;;;5032855;28;20439;-48
2022/07/04 12:14:24;;;;;;;3.30;1.50;;;25.50;60.60;;;;;;5033340;28;20481;-47
2022/07/04 12:17:10;;;;;;;2.30;1.10;;;25.60;60.90;;;;;;5032922;28;20485;-48
2022/07/04 12:19:36;;;;;;;3.80;1.47;;;25.70;60.70;;;;;;5032414;28;20944;-50
2022/07/04 12:22:04;;;;;;;3.67;1.50;;;25.60;60.40;;;;;;5029459;28;20455;-48
2022/07/04 12:24:41;;;;;;;3.87;1.80;;;25.70;60.30;;;;;;5032681;28;20521;-48
2022/07/04 12:27:16;;;;;;;2.93;1.30;;;25.70;60.10;;;;;;5032978;28;20489;-47
2022/07/04 12:29:47;;;;;;;3.17;1.03;;;25.70;60.40;;;;;;5032247;28;20486;-49
2022/07/04 12:32:14;;;;;;;4.90;1.70;;;25.80;59.60;;;;;;5032417;28;20458;-48
2022/07/04 12:34:41;;;;;;;2.17;1.30;;;25.80;59.30;;;;;;5032985;28;20471;-48
2022/07/04 12:37:11;;;;;;;7.63;1.60;;;25.90;59.10;;;;;;5033228;28;20443;-48
2022/07/04 12:39:40;;;;;;;4.40;1.10;;;26.10;59.00;;;;;;5032721;28;20948;-48
2022/07/04 12:42:11;;;;;;;2.67;1.00;;;26.10;58.80;;;;;;5032687;28;20427;-48
2022/07/04 12:44:39;;;;;;;2.30;1.03;;;26.10;58.20;;;;;;5032561;28;20457;-49
2022/07/04 12:47:06;;;;;;;3.70;1.30;;;26.10;58.20;;;;;;5031894;28;20923;-49
2022/07/04 12:49:33;;;;;;;4.10;0.90;;;26.00;58.30;;;;;;5032058;28;20483;-48
2022/07/04 12:52:10;;;;;;;3.10;1.00;;;26.10;58.20;;;;;;5032732;28;20452;-49
2022/07/04 12:54:38;;;;;;;1.70;1.10;;;26.30;58.20;;;;;;5031607;28;20535;-48
2022/07/04 12:57:11;;;;;;;2.90;1.10;;;26.00;58.00;;;;;;5032753;28;20435;-49
2022/07/04 12:59:38;;;;;;;1.97;1.10;;;26.10;58.10;;;;;;5031953;28;20435;-49
2022/07/04 13:02:05;;;;;;;7.17;2.73;;;26.10;57.50;;;;;;5032206;28;20961;-47
2022/07/04 13:04:33;;;;;;;4.10;1.30;;;26.10;57.10;;;;;;5032438;28;20463;-50
2022/07/04 13:07:00;;;;;;;3.37;1.50;;;26.10;57.00;;;;;;5032002;28;20450;-49
2022/07/04 13:09:28;;;;;;;2.03;1.17;;;26.00;56.10;;;;;;5031807;28;21023;-49
2022/07/04 13:14:39;;;;;;;2.30;1.20;;;25.80;56.10;;;;;;5032100;28;20462;-47
2022/07/04 13:17:06;;;;;;;4.10;2.83;;;25.90;56.00;;;;;;5032216;28;20438;-49
2022/07/04 13:19:32;;;;;;;2.40;1.03;;;25.90;55.50;;;;;;5031922;28;20916;-49